createdAt,value
2022-11-05T00:05:12.568Z,8.30
2022-11-05T00:10:20.253Z,8.32
2022-11-05T00:15:40.473Z,8.33
2022-11-05T00:20:42.034Z,8.34
2022-11-05T00:25:43.581Z,8.41
2022-11-05T00:30:45.181Z,8.44
2022-11-05T00:35:46.808Z,8.45
2022-11-05T00:40:48.378Z,8.41
2022-11-05T00:45:49.955Z,8.28
2022-11-05T00:50:51.859Z,8.22
2022-11-05T00:55:53.438Z,8.18
2022-11-05T01:00:57.621Z,8.17
2022-11-05T01:06:07.509Z,8.17
2022-11-05T01:11:11.939Z,8.21
2022-11-05T01:16:13.697Z,8.20
2022-11-05T01:21:15.910Z,8.23
2022-11-05T01:26:17.777Z,8.23
2022-11-05T01:31:20.111Z,8.26
2022-11-05T01:36:21.771Z,8.31
2022-11-05T01:41:23.376Z,8.34
2022-11-05T01:46:36.574Z,8.37
2022-11-05T01:51:39.630Z,8.40
2022-11-05T01:56:49.192Z,8.44
2022-11-05T02:02:07.460Z,8.47
2022-11-05T02:07:10.520Z,8.48
2022-11-05T02:12:13.466Z,8.48
2022-11-05T02:17:26.296Z,8.46
2022-11-05T02:23:00.295Z,8.41
2022-11-05T02:28:01.828Z,8.42
2022-11-05T02:33:26.649Z,8.43
2022-11-05T02:38:51.150Z,8.42
2022-11-05T02:44:20.146Z,8.40
2022-11-05T02:49:34.433Z,8.40
2022-11-05T02:54:41.847Z,8.40
2022-11-05T02:59:43.483Z,8.39
2022-11-05T03:04:45.125Z,8.42
2022-11-05T03:10:04.838Z,8.37
2022-11-05T03:15:20.972Z,8.35
2022-11-05T03:20:44.447Z,8.40
2022-11-05T03:25:53.656Z,8.36
2022-11-05T03:30:58.170Z,8.41
2022-11-05T03:36:05.941Z,8.43
2022-11-05T03:41:11.879Z,8.46
2022-11-05T03:46:35.020Z,8.40
2022-11-05T03:52:15.072Z,8.34
2022-11-05T03:57:22.354Z,8.38
2022-11-05T04:02:27.104Z,8.29
2022-11-05T04:07:47.155Z,8.32
2022-11-05T04:13:07.545Z,8.33
2022-11-05T04:18:09.224Z,8.38
2022-11-05T04:23:29.539Z,8.40
2022-11-05T04:28:51.067Z,8.45
2022-11-05T04:33:52.662Z,8.44
2022-11-05T04:38:54.213Z,8.37
2022-11-05T04:43:55.788Z,8.32
2022-11-05T04:48:57.344Z,8.30
2022-11-05T04:53:58.943Z,8.28
2022-11-05T04:59:02.873Z,8.28
2022-11-05T05:04:04.611Z,8.31
2022-11-05T05:09:06.162Z,8.28
2022-11-05T05:14:08.421Z,8.32
2022-11-05T05:19:09.995Z,8.34
2022-11-05T05:24:14.182Z,8.33
2022-11-05T05:29:17.219Z,8.29
2022-11-05T05:34:18.819Z,8.31
2022-11-05T05:39:20.378Z,8.31
2022-11-05T05:44:21.996Z,8.19
2022-11-05T05:49:25.937Z,8.13
2022-11-05T05:54:32.152Z,8.06
2022-11-05T05:59:35.078Z,8.07
2022-11-05T06:04:36.633Z,8.07
2022-11-05T06:09:38.207Z,8.09
2022-11-05T06:14:39.845Z,8.13
2022-11-05T06:19:41.412Z,8.20
2022-11-05T06:24:42.971Z,8.24
2022-11-05T06:29:44.555Z,8.23
2022-11-05T06:34:46.113Z,8.23
2022-11-05T06:39:47.849Z,8.17
2022-11-05T06:44:49.413Z,7.97
2022-11-05T06:49:50.987Z,7.91
2022-11-05T06:54:52.733Z,7.95
2022-11-05T07:00:01.319Z,7.97
2022-11-05T07:05:05.201Z,7.98
2022-11-05T07:10:09.377Z,8.06
2022-11-05T07:15:12.275Z,8.07
2022-11-05T07:20:13.857Z,8.14
2022-11-05T07:25:15.435Z,8.19
2022-11-05T07:30:16.992Z,8.29
2022-11-05T07:35:18.602Z,8.41
2022-11-05T07:40:21.678Z,8.54
2022-11-05T07:45:24.514Z,8.69
2022-11-05T07:50:28.679Z,8.90
2022-11-05T07:55:31.440Z,9.11
2022-11-05T08:00:33.988Z,9.21
2022-11-05T08:05:38.250Z,9.18
2022-11-05T08:10:40.664Z,9.24
2022-11-05T08:15:43.251Z,9.42
2022-11-05T08:20:46.924Z,9.53
2022-11-05T08:25:48.655Z,9.51
2022-11-05T08:30:55.704Z,9.44
2022-11-05T08:36:01.288Z,9.50
2022-11-05T08:41:02.961Z,9.60
2022-11-05T08:46:04.570Z,9.77
2022-11-05T08:51:06.286Z,10.03
2022-11-05T08:56:08.243Z,10.25
2022-11-05T09:01:09.960Z,10.39
2022-11-05T09:06:11.576Z,10.52
2022-11-05T09:11:13.187Z,10.46
2022-11-05T09:16:20.378Z,10.45
2022-11-05T09:21:21.941Z,10.62
2022-11-05T09:26:23.646Z,10.82
2022-11-05T09:31:25.194Z,11.11
2022-11-05T09:36:26.789Z,11.31
2022-11-05T09:41:36.835Z,11.41
2022-11-05T09:46:53.148Z,11.55
2022-11-05T09:51:57.508Z,11.69
2022-11-05T09:57:01.520Z,11.66
2022-11-05T10:02:30.245Z,11.63
2022-11-05T10:07:46.033Z,11.78
2022-11-05T10:12:52.674Z,11.80
2022-11-05T10:18:01.414Z,11.92
2022-11-05T10:23:11.916Z,12.09
2022-11-05T10:28:19.503Z,12.26
2022-11-05T10:33:32.497Z,12.25
2022-11-05T10:38:34.259Z,12.07
2022-11-05T10:43:47.907Z,11.65
2022-11-05T10:49:02.870Z,11.33
2022-11-05T10:54:12.195Z,11.36
2022-11-05T10:59:28.550Z,11.47
2022-11-05T11:04:36.541Z,11.74
2022-11-05T11:09:39.451Z,11.74
2022-11-05T11:14:41.097Z,11.78
2022-11-05T11:19:42.687Z,12.00
2022-11-05T11:24:48.045Z,12.21
2022-11-05T11:30:01.489Z,12.60
2022-11-05T11:35:05.348Z,12.88
2022-11-05T11:40:28.939Z,13.14
2022-11-05T11:45:38.199Z,13.28
2022-11-05T11:50:48.112Z,13.37
2022-11-05T11:56:09.889Z,13.46
2022-11-05T12:01:32.803Z,13.47
2022-11-05T12:06:43.432Z,13.31
2022-11-05T12:12:10.058Z,12.83
2022-11-05T12:17:49.084Z,12.52
2022-11-05T12:23:18.460Z,12.79
2022-11-05T12:28:36.225Z,12.95
2022-11-05T12:33:47.202Z,12.81
2022-11-05T12:39:10.683Z,12.70
2022-11-05T12:44:41.500Z,12.64
2022-11-05T12:50:02.885Z,12.38
2022-11-05T12:55:11.068Z,12.30
2022-11-05T13:00:26.971Z,12.17
2022-11-05T13:05:42.018Z,12.00
2022-11-05T13:10:58.256Z,11.79
2022-11-05T13:16:05.859Z,11.65
2022-11-05T13:21:08.878Z,11.56
2022-11-05T13:26:37.638Z,11.45
2022-11-05T13:31:50.098Z,11.40
2022-11-05T13:37:22.074Z,11.35
2022-11-05T13:42:56.468Z,11.08
2022-11-05T13:48:31.792Z,10.93
2022-11-05T13:53:58.358Z,10.85
2022-11-05T13:59:12.093Z,10.61
2022-11-05T14:04:35.262Z,10.54
2022-11-05T14:09:38.123Z,10.58
2022-11-05T14:14:46.556Z,10.54
2022-11-05T14:20:05.626Z,10.54
2022-11-05T14:25:19.331Z,10.45
2022-11-05T14:30:41.067Z,10.31
2022-11-05T14:35:43.313Z,10.29
2022-11-05T14:40:46.335Z,10.25
2022-11-05T14:45:58.778Z,10.18
2022-11-05T14:51:00.486Z,10.11
2022-11-05T14:56:04.250Z,9.96
2022-11-05T15:01:30.097Z,9.74
2022-11-05T15:06:35.202Z,9.55
2022-11-05T15:11:45.575Z,9.48
2022-11-05T15:16:55.944Z,9.50
2022-11-05T15:22:00.940Z,9.54
2022-11-05T15:27:19.974Z,9.45
2022-11-05T15:32:26.388Z,9.35
2022-11-05T15:37:27.963Z,9.26
2022-11-05T15:42:29.865Z,9.10
2022-11-05T15:47:35.018Z,8.98
2022-11-05T15:52:48.257Z,8.78
2022-11-05T15:57:58.267Z,8.65
2022-11-05T16:03:02.246Z,8.44
2022-11-05T16:08:05.242Z,8.26
2022-11-05T16:13:32.330Z,8.02
2022-11-05T16:18:37.704Z,7.77
2022-11-05T16:23:53.442Z,7.50
2022-11-05T16:28:56.828Z,7.27
2022-11-05T16:33:59.363Z,7.07
2022-11-05T16:39:00.965Z,6.90
2022-11-05T16:44:03.154Z,6.73
2022-11-05T16:49:04.975Z,6.55
2022-11-05T16:54:06.729Z,6.37
2022-11-05T16:59:12.603Z,6.21
2022-11-05T17:04:14.230Z,6.03
2022-11-05T17:09:16.403Z,5.86
2022-11-05T17:14:17.987Z,5.71
2022-11-05T17:19:19.756Z,5.57
2022-11-05T17:24:21.525Z,5.40
2022-11-05T17:29:23.101Z,5.25
2022-11-05T17:34:24.710Z,5.15
2022-11-05T17:39:31.429Z,5.02
2022-11-05T17:44:33.488Z,4.87
2022-11-05T17:49:35.046Z,4.75
2022-11-05T17:54:36.615Z,4.62
2022-11-05T17:59:38.242Z,4.48
2022-11-05T18:04:40.168Z,4.37
2022-11-05T18:09:42.188Z,4.27
2022-11-05T18:14:43.814Z,4.17
2022-11-05T18:19:45.407Z,4.11
2022-11-05T18:24:46.998Z,4.07
2022-11-05T18:29:48.554Z,4.04
2022-11-05T18:34:50.152Z,4.02
2022-11-05T18:39:52.926Z,4.06
2022-11-05T18:44:54.611Z,4.09
2022-11-05T18:49:56.276Z,4.10
2022-11-05T18:54:58.698Z,4.09
2022-11-05T19:00:00.886Z,4.14
2022-11-05T19:10:24.371Z,4.03
2022-11-05T19:15:26.048Z,4.01
2022-11-05T19:20:28.138Z,4.01
2022-11-05T19:25:29.745Z,3.99
2022-11-05T19:30:31.350Z,3.95
2022-11-05T19:35:35.705Z,3.93
2022-11-05T19:40:41.777Z,3.95
2022-11-05T19:45:44.970Z,3.89
2022-11-05T19:50:47.048Z,3.73
2022-11-05T19:55:48.640Z,3.62
2022-11-05T20:00:50.192Z,3.51
2022-11-05T20:05:51.809Z,3.28
2022-11-05T20:10:55.151Z,3.18
2022-11-05T20:15:57.160Z,3.11
2022-11-05T20:21:17.190Z,2.98
2022-11-05T20:26:18.881Z,2.95
2022-11-05T20:31:20.767Z,2.90
2022-11-05T20:36:24.462Z,2.87
2022-11-05T20:41:26.713Z,2.82
2022-11-05T20:46:28.489Z,2.76
2022-11-05T20:51:30.120Z,2.66
2022-11-05T20:56:34.684Z,2.56
2022-11-05T21:01:36.493Z,2.52
2022-11-05T21:06:38.102Z,2.47
2022-11-05T21:11:58.410Z,2.49
2022-11-05T21:17:00.041Z,2.48
2022-11-05T21:22:02.775Z,2.40
2022-11-05T21:27:04.341Z,2.32
2022-11-05T21:32:08.335Z,2.25
2022-11-05T21:37:09.905Z,2.22
2022-11-05T21:42:11.469Z,2.22
2022-11-05T21:47:13.858Z,2.25
2022-11-05T21:52:34.165Z,2.24
2022-11-05T21:57:54.466Z,2.23
2022-11-05T22:02:56.116Z,2.25
2022-11-05T22:08:03.548Z,2.31
2022-11-05T22:13:05.214Z,2.36
2022-11-05T22:18:06.862Z,2.42
2022-11-05T22:23:11.217Z,2.45
2022-11-05T22:28:13.403Z,2.49
2022-11-05T22:33:15.167Z,2.50
2022-11-05T22:38:16.800Z,2.45
2022-11-05T22:43:18.388Z,2.41
2022-11-05T22:48:19.954Z,2.33
2022-11-05T22:53:21.521Z,2.18
2022-11-05T22:58:23.063Z,2.10
2022-11-05T23:03:25.892Z,1.95
2022-11-05T23:08:46.578Z,1.89
2022-11-05T23:13:48.196Z,1.89
2022-11-05T23:19:08.344Z,1.95
2022-11-05T23:24:12.861Z,1.91
2022-11-05T23:29:14.426Z,1.78
2022-11-05T23:34:15.993Z,1.82
2022-11-05T23:39:17.546Z,1.86
2022-11-05T23:44:37.595Z,1.90
2022-11-05T23:49:39.163Z,1.91
2022-11-05T23:54:40.779Z,1.88
2022-11-05T23:59:42.414Z,1.88
